sensor_id;sensor_type;location;lat;lon;timestamp;P1;durP1;ratioP1;P2;durP2;ratioP2
74821;SDS011;63353;48.702;8.884;2022-12-05T00:01:27;30.13;;;12.47;;
74821;SDS011;63353;48.702;8.884;2022-12-05T00:04:02;30.07;;;12.30;;
74821;SDS011;63353;48.702;8.884;2022-12-05T00:06:30;28.07;;;11.50;;
74821;SDS011;63353;48.702;8.884;2022-12-05T00:08:57;24.23;;;10.57;;
74821;SDS011;63353;48.702;8.884;2022-12-05T00:11:24;23.13;;;10.67;;
74821;SDS011;63353;48.702;8.884;2022-12-05T00:13:53;23.77;;;11.43;;
74821;SDS011;63353;48.702;8.884;2022-12-05T00:16:20;23.43;;;11.10;;
74821;SDS011;63353;48.702;8.884;2022-12-05T00:18:47;27.20;;;11.93;;
74821;SDS011;63353;48.702;8.884;2022-12-05T00:21:15;25.07;;;11.63;;
74821;SDS011;63353;48.702;8.884;2022-12-05T00:23:45;27.07;;;11.80;;
74821;SDS011;63353;48.702;8.884;2022-12-05T00:26:11;27.17;;;11.80;;
74821;SDS011;63353;48.702;8.884;2022-12-05T00:28:37;26.07;;;11.47;;
74821;SDS011;63353;48.702;8.884;2022-12-05T00:31:04;25.57;;;11.43;;
74821;SDS011;63353;48.702;8.884;2022-12-05T00:33:32;24.77;;;11.27;;
74821;SDS011;63353;48.702;8.884;2022-12-05T00:36:05;23.97;;;11.43;;
74821;SDS011;63353;48.702;8.884;2022-12-05T00:38:33;27.20;;;11.73;;
74821;SDS011;63353;48.702;8.884;2022-12-05T00:41:06;27.27;;;11.63;;
74821;SDS011;63353;48.702;8.884;2022-12-05T00:43:38;25.47;;;11.33;;
74821;SDS011;63353;48.702;8.884;2022-12-05T00:46:05;32.53;;;12.33;;
74821;SDS011;63353;48.702;8.884;2022-12-05T00:48:36;29.87;;;12.00;;
74821;SDS011;63353;48.702;8.884;2022-12-05T00:51:05;28.10;;;11.90;;
74821;SDS011;63353;48.702;8.884;2022-12-05T00:53:32;26.83;;;12.70;;
74821;SDS011;63353;48.702;8.884;2022-12-05T00:56:05;32.27;;;13.37;;
74821;SDS011;63353;48.702;8.884;2022-12-05T00:58:35;32.23;;;12.30;;
74821;SDS011;63353;48.702;8.884;2022-12-05T01:01:05;31.97;;;13.00;;
74821;SDS011;63353;48.702;8.884;2022-12-05T01:03:36;28.50;;;13.13;;
74821;SDS011;63353;48.702;8.884;2022-12-05T01:06:02;32.80;;;12.50;;
74821;SDS011;63353;48.702;8.884;2022-12-05T01:08:30;30.77;;;13.13;;
74821;SDS011;63353;48.702;8.884;2022-12-05T01:10:56;33.17;;;13.17;;
74821;SDS011;63353;48.702;8.884;2022-12-05T01:13:23;28.50;;;12.33;;
74821;SDS011;63353;48.702;8.884;2022-12-05T01:15:49;31.83;;;12.80;;
74821;SDS011;63353;48.702;8.884;2022-12-05T01:18:15;31.30;;;12.50;;
74821;SDS011;63353;48.702;8.884;2022-12-05T01:20:42;36.60;;;13.57;;
74821;SDS011;63353;48.702;8.884;2022-12-05T01:23:08;38.53;;;14.20;;
74821;SDS011;63353;48.702;8.884;2022-12-05T01:25:34;29.10;;;12.53;;
74821;SDS011;63353;48.702;8.884;2022-12-05T01:28:04;30.23;;;12.20;;
74821;SDS011;63353;48.702;8.884;2022-12-05T01:30:30;30.20;;;11.43;;
74821;SDS011;63353;48.702;8.884;2022-12-05T01:32:56;28.80;;;12.63;;
74821;SDS011;63353;48.702;8.884;2022-12-05T01:35:23;30.20;;;11.77;;
74821;SDS011;63353;48.702;8.884;2022-12-05T01:37:49;35.03;;;13.13;;
74821;SDS011;63353;48.702;8.884;2022-12-05T01:40:15;30.40;;;12.10;;
74821;SDS011;63353;48.702;8.884;2022-12-05T01:42:41;29.20;;;11.57;;
74821;SDS011;63353;48.702;8.884;2022-12-05T01:45:18;32.40;;;12.20;;
74821;SDS011;63353;48.702;8.884;2022-12-05T01:47:54;32.27;;;12.27;;
74821;SDS011;63353;48.702;8.884;2022-12-05T01:50:20;25.30;;;11.07;;
74821;SDS011;63353;48.702;8.884;2022-12-05T01:52:46;30.23;;;11.87;;
74821;SDS011;63353;48.702;8.884;2022-12-05T01:55:12;26.17;;;11.40;;
74821;SDS011;63353;48.702;8.884;2022-12-05T01:57:40;30.13;;;12.07;;
74821;SDS011;63353;48.702;8.884;2022-12-05T02:00:11;31.13;;;11.27;;
74821;SDS011;63353;48.702;8.884;2022-12-05T02:02:40;31.80;;;12.33;;
74821;SDS011;63353;48.702;8.884;2022-12-05T02:05:31;32.63;;;12.53;;
74821;SDS011;63353;48.702;8.884;2022-12-05T02:07:57;33.90;;;12.80;;
74821;SDS011;63353;48.702;8.884;2022-12-05T02:10:25;35.13;;;12.63;;
74821;SDS011;63353;48.702;8.884;2022-12-05T02:12:52;33.67;;;13.33;;
74821;SDS011;63353;48.702;8.884;2022-12-05T02:15:32;34.53;;;13.30;;
74821;SDS011;63353;48.702;8.884;2022-12-05T02:31:17;32.67;;;13.60;;
74821;SDS011;63353;48.702;8.884;2022-12-05T02:36:59;44.47;;;14.13;;
74821;SDS011;63353;48.702;8.884;2022-12-05T02:42:29;39.50;;;14.87;;
74821;SDS011;63353;48.702;8.884;2022-12-05T02:45:29;40.07;;;15.37;;
74821;SDS011;63353;48.702;8.884;2022-12-05T02:47:58;40.03;;;14.63;;
74821;SDS011;63353;48.702;8.884;2022-12-05T02:50:26;42.93;;;15.63;;
74821;SDS011;63353;48.702;8.884;2022-12-05T02:52:58;46.30;;;15.70;;
74821;SDS011;63353;48.702;8.884;2022-12-05T02:55:27;44.63;;;16.37;;
74821;SDS011;63353;48.702;8.884;2022-12-05T02:57:57;51.20;;;15.87;;
74821;SDS011;63353;48.702;8.884;2022-12-05T03:00:27;50.13;;;16.07;;
74821;SDS011;63353;48.702;8.884;2022-12-05T03:02:55;49.50;;;16.83;;
74821;SDS011;63353;48.702;8.884;2022-12-05T03:07:52;46.07;;;15.97;;
74821;SDS011;63353;48.702;8.884;2022-12-05T03:10:20;45.40;;;16.90;;
74821;SDS011;63353;48.702;8.884;2022-12-05T03:12:50;53.33;;;19.63;;
74821;SDS011;63353;48.702;8.884;2022-12-05T03:15:42;50.30;;;18.47;;
74821;SDS011;63353;48.702;8.884;2022-12-05T03:20:48;45.40;;;16.27;;
74821;SDS011;63353;48.702;8.884;2022-12-05T03:23:25;38.43;;;15.90;;
74821;SDS011;63353;48.702;8.884;2022-12-05T03:26:01;42.33;;;15.33;;
74821;SDS011;63353;48.702;8.884;2022-12-05T03:31:15;37.73;;;15.70;;
74821;SDS011;63353;48.702;8.884;2022-12-05T03:33:44;40.63;;;15.30;;
74821;SDS011;63353;48.702;8.884;2022-12-05T03:36:16;41.10;;;15.43;;
74821;SDS011;63353;48.702;8.884;2022-12-05T03:38:56;42.70;;;15.47;;
74821;SDS011;63353;48.702;8.884;2022-12-05T03:49:10;36.30;;;14.80;;
74821;SDS011;63353;48.702;8.884;2022-12-05T03:52:13;37.37;;;14.83;;
74821;SDS011;63353;48.702;8.884;2022-12-05T03:54:55;33.67;;;14.50;;
74821;SDS011;63353;48.702;8.884;2022-12-05T03:57:30;36.00;;;14.50;;
74821;SDS011;63353;48.702;8.884;2022-12-05T04:00:19;36.83;;;15.07;;
74821;SDS011;63353;48.702;8.884;2022-12-05T04:02:54;34.67;;;13.93;;
74821;SDS011;63353;48.702;8.884;2022-12-05T04:05:33;37.70;;;14.60;;
74821;SDS011;63353;48.702;8.884;2022-12-05T04:08:07;35.97;;;14.57;;
74821;SDS011;63353;48.702;8.884;2022-12-05T04:10:39;37.13;;;14.50;;
74821;SDS011;63353;48.702;8.884;2022-12-05T04:13:58;37.13;;;14.60;;
74821;SDS011;63353;48.702;8.884;2022-12-05T04:16:24;32.87;;;14.03;;
74821;SDS011;63353;48.702;8.884;2022-12-05T04:19:25;33.83;;;13.80;;
74821;SDS011;63353;48.702;8.884;2022-12-05T04:22:19;35.27;;;14.63;;
74821;SDS011;63353;48.702;8.884;2022-12-05T04:24:47;29.80;;;13.43;;
74821;SDS011;63353;48.702;8.884;2022-12-05T04:30:06;31.00;;;14.30;;
74821;SDS011;63353;48.702;8.884;2022-12-05T04:32:41;35.23;;;13.63;;
74821;SDS011;63353;48.702;8.884;2022-12-05T04:35:14;33.00;;;13.20;;
74821;SDS011;63353;48.702;8.884;2022-12-05T04:37:44;31.00;;;13.30;;
74821;SDS011;63353;48.702;8.884;2022-12-05T04:40:51;32.40;;;13.43;;
74821;SDS011;63353;48.702;8.884;2022-12-05T04:43:27;26.47;;;12.27;;
74821;SDS011;63353;48.702;8.884;2022-12-05T04:45:55;27.33;;;11.77;;
74821;SDS011;63353;48.702;8.884;2022-12-05T04:48:24;30.97;;;13.10;;
74821;SDS011;63353;48.702;8.884;2022-12-05T04:50:52;26.47;;;11.43;;
74821;SDS011;63353;48.702;8.884;2022-12-05T04:53:19;31.30;;;13.77;;
74821;SDS011;63353;48.702;8.884;2022-12-05T04:55:47;29.63;;;11.80;;
74821;SDS011;63353;48.702;8.884;2022-12-05T04:58:20;28.83;;;13.23;;
74821;SDS011;63353;48.702;8.884;2022-12-05T05:00:59;31.50;;;13.07;;
74821;SDS011;63353;48.702;8.884;2022-12-05T05:06:15;28.00;;;12.13;;
74821;SDS011;63353;48.702;8.884;2022-12-05T05:08:46;25.00;;;11.30;;
74821;SDS011;63353;48.702;8.884;2022-12-05T05:11:18;31.83;;;13.20;;
74821;SDS011;63353;48.702;8.884;2022-12-05T05:13:44;25.90;;;11.93;;
74821;SDS011;63353;48.702;8.884;2022-12-05T05:16:31;25.00;;;12.20;;
74821;SDS011;63353;48.702;8.884;2022-12-05T05:19:02;26.00;;;11.63;;
74821;SDS011;63353;48.702;8.884;2022-12-05T05:21:29;25.73;;;12.00;;
74821;SDS011;63353;48.702;8.884;2022-12-05T05:23:57;34.23;;;14.43;;
74821;SDS011;63353;48.702;8.884;2022-12-05T05:26:23;24.67;;;12.47;;
74821;SDS011;63353;48.702;8.884;2022-12-05T05:28:50;34.07;;;12.30;;
74821;SDS011;63353;48.702;8.884;2022-12-05T05:31:16;28.07;;;12.50;;
74821;SDS011;63353;48.702;8.884;2022-12-05T05:33:42;27.57;;;13.07;;
74821;SDS011;63353;48.702;8.884;2022-12-05T05:36:09;36.83;;;15.73;;
74821;SDS011;63353;48.702;8.884;2022-12-05T05:38:37;33.40;;;15.83;;
74821;SDS011;63353;48.702;8.884;2022-12-05T05:41:11;29.33;;;13.27;;
74821;SDS011;63353;48.702;8.884;2022-12-05T05:43:38;25.40;;;12.60;;
74821;SDS011;63353;48.702;8.884;2022-12-05T05:46:04;27.47;;;13.00;;
74821;SDS011;63353;48.702;8.884;2022-12-05T05:48:30;28.67;;;12.37;;
74821;SDS011;63353;48.702;8.884;2022-12-05T05:50:59;26.67;;;12.23;;
74821;SDS011;63353;48.702;8.884;2022-12-05T05:53:26;21.90;;;11.33;;
74821;SDS011;63353;48.702;8.884;2022-12-05T05:55:51;23.60;;;12.17;;
74821;SDS011;63353;48.702;8.884;2022-12-05T05:58:17;23.83;;;11.70;;
74821;SDS011;63353;48.702;8.884;2022-12-05T06:00:43;27.13;;;13.80;;
74821;SDS011;63353;48.702;8.884;2022-12-05T06:03:08;27.27;;;13.03;;
74821;SDS011;63353;48.702;8.884;2022-12-05T06:05:34;25.63;;;12.93;;
74821;SDS011;63353;48.702;8.884;2022-12-05T06:08:00;24.20;;;11.57;;
74821;SDS011;63353;48.702;8.884;2022-12-05T06:10:26;24.83;;;12.10;;
74821;SDS011;63353;48.702;8.884;2022-12-05T06:12:53;26.20;;;11.97;;
74821;SDS011;63353;48.702;8.884;2022-12-05T06:15:19;22.50;;;11.60;;
74821;SDS011;63353;48.702;8.884;2022-12-05T06:17:45;26.90;;;11.83;;
74821;SDS011;63353;48.702;8.884;2022-12-05T06:20:10;24.17;;;12.27;;
74821;SDS011;63353;48.702;8.884;2022-12-05T06:22:36;30.67;;;15.37;;
74821;SDS011;63353;48.702;8.884;2022-12-05T06:25:02;23.63;;;12.77;;
74821;SDS011;63353;48.702;8.884;2022-12-05T06:27:28;23.23;;;11.57;;
74821;SDS011;63353;48.702;8.884;2022-12-05T06:29:55;21.60;;;11.67;;
74821;SDS011;63353;48.702;8.884;2022-12-05T06:32:21;24.40;;;11.50;;
74821;SDS011;63353;48.702;8.884;2022-12-05T06:34:46;20.10;;;10.97;;
74821;SDS011;63353;48.702;8.884;2022-12-05T06:37:12;22.53;;;12.10;;
74821;SDS011;63353;48.702;8.884;2022-12-05T06:39:38;25.57;;;14.57;;
74821;SDS011;63353;48.702;8.884;2022-12-05T06:42:03;21.10;;;12.03;;
74821;SDS011;63353;48.702;8.884;2022-12-05T06:44:29;22.43;;;11.70;;
74821;SDS011;63353;48.702;8.884;2022-12-05T06:46:55;22.47;;;11.73;;
74821;SDS011;63353;48.702;8.884;2022-12-05T06:49:21;23.37;;;12.57;;
74821;SDS011;63353;48.702;8.884;2022-12-05T06:51:50;21.33;;;11.83;;
74821;SDS011;63353;48.702;8.884;2022-12-05T06:54:19;21.83;;;12.40;;
74821;SDS011;63353;48.702;8.884;2022-12-05T06:56:45;27.43;;;14.53;;
74821;SDS011;63353;48.702;8.884;2022-12-05T06:59:11;26.93;;;14.57;;
74821;SDS011;63353;48.702;8.884;2022-12-05T07:01:36;31.40;;;17.07;;
74821;SDS011;63353;48.702;8.884;2022-12-05T07:04:13;21.33;;;11.80;;
74821;SDS011;63353;48.702;8.884;2022-12-05T07:06:49;19.93;;;10.77;;
74821;SDS011;63353;48.702;8.884;2022-12-05T07:09:17;23.03;;;11.30;;
74821;SDS011;63353;48.702;8.884;2022-12-05T07:11:47;25.87;;;13.67;;
74821;SDS011;63353;48.702;8.884;2022-12-05T07:14:14;46.23;;;25.53;;
74821;SDS011;63353;48.702;8.884;2022-12-05T07:16:40;51.00;;;27.33;;
74821;SDS011;63353;48.702;8.884;2022-12-05T07:19:06;23.03;;;14.07;;
74821;SDS011;63353;48.702;8.884;2022-12-05T07:21:31;17.43;;;10.20;;
74821;SDS011;63353;48.702;8.884;2022-12-05T07:23:57;17.67;;;9.57;;
74821;SDS011;63353;48.702;8.884;2022-12-05T07:26:23;16.40;;;9.23;;
74821;SDS011;63353;48.702;8.884;2022-12-05T07:28:49;19.40;;;10.50;;
74821;SDS011;63353;48.702;8.884;2022-12-05T07:31:17;18.97;;;11.37;;
74821;SDS011;63353;48.702;8.884;2022-12-05T07:33:45;17.97;;;9.93;;
74821;SDS011;63353;48.702;8.884;2022-12-05T07:36:15;23.97;;;13.87;;
74821;SDS011;63353;48.702;8.884;2022-12-05T07:38:46;25.17;;;14.30;;
74821;SDS011;63353;48.702;8.884;2022-12-05T07:43:45;21.00;;;11.97;;
74821;SDS011;63353;48.702;8.884;2022-12-05T07:46:11;20.63;;;13.03;;
74821;SDS011;63353;48.702;8.884;2022-12-05T07:48:37;22.33;;;13.40;;
74821;SDS011;63353;48.702;8.884;2022-12-05T07:51:04;19.83;;;11.23;;
74821;SDS011;63353;48.702;8.884;2022-12-05T07:53:31;17.47;;;10.20;;
74821;SDS011;63353;48.702;8.884;2022-12-05T07:55:58;14.77;;;9.10;;
74821;SDS011;63353;48.702;8.884;2022-12-05T07:58:29;16.50;;;9.57;;
74821;SDS011;63353;48.702;8.884;2022-12-05T08:00:55;23.70;;;14.57;;
74821;SDS011;63353;48.702;8.884;2022-12-05T08:03:22;20.03;;;13.07;;
74821;SDS011;63353;48.702;8.884;2022-12-05T08:05:48;20.93;;;13.90;;
74821;SDS011;63353;48.702;8.884;2022-12-05T08:08:14;17.93;;;10.80;;
74821;SDS011;63353;48.702;8.884;2022-12-05T08:10:40;17.87;;;10.73;;
74821;SDS011;63353;48.702;8.884;2022-12-05T08:13:05;17.97;;;10.77;;
74821;SDS011;63353;48.702;8.884;2022-12-05T08:15:33;17.33;;;10.47;;
74821;SDS011;63353;48.702;8.884;2022-12-05T08:18:00;18.67;;;11.17;;
74821;SDS011;63353;48.702;8.884;2022-12-05T08:20:26;17.70;;;11.97;;
74821;SDS011;63353;48.702;8.884;2022-12-05T08:22:52;16.40;;;10.70;;
74821;SDS011;63353;48.702;8.884;2022-12-05T08:25:18;19.37;;;10.50;;
74821;SDS011;63353;48.702;8.884;2022-12-05T08:27:44;16.77;;;10.20;;
74821;SDS011;63353;48.702;8.884;2022-12-05T08:30:09;18.20;;;10.37;;
74821;SDS011;63353;48.702;8.884;2022-12-05T08:32:35;17.73;;;10.73;;
74821;SDS011;63353;48.702;8.884;2022-12-05T08:35:01;18.53;;;10.73;;
74821;SDS011;63353;48.702;8.884;2022-12-05T08:37:26;19.73;;;11.63;;
74821;SDS011;63353;48.702;8.884;2022-12-05T08:39:52;28.83;;;15.87;;
74821;SDS011;63353;48.702;8.884;2022-12-05T08:42:18;23.97;;;14.30;;
74821;SDS011;63353;48.702;8.884;2022-12-05T08:44:43;23.73;;;13.93;;
74821;SDS011;63353;48.702;8.884;2022-12-05T08:47:09;19.97;;;11.40;;
74821;SDS011;63353;48.702;8.884;2022-12-05T08:49:34;24.13;;;13.93;;
74821;SDS011;63353;48.702;8.884;2022-12-05T08:52:00;20.20;;;10.97;;
74821;SDS011;63353;48.702;8.884;2022-12-05T08:54:26;18.07;;;11.33;;
74821;SDS011;63353;48.702;8.884;2022-12-05T08:56:51;20.07;;;11.00;;
74821;SDS011;63353;48.702;8.884;2022-12-05T08:59:17;18.93;;;11.00;;
74821;SDS011;63353;48.702;8.884;2022-12-05T09:01:43;19.67;;;11.53;;
74821;SDS011;63353;48.702;8.884;2022-12-05T09:04:09;18.33;;;10.57;;
74821;SDS011;63353;48.702;8.884;2022-12-05T09:06:36;21.80;;;11.27;;
74821;SDS011;63353;48.702;8.884;2022-12-05T09:09:05;20.90;;;11.00;;
74821;SDS011;63353;48.702;8.884;2022-12-05T09:11:34;18.00;;;10.77;;
74821;SDS011;63353;48.702;8.884;2022-12-05T09:14:01;18.80;;;10.93;;
74821;SDS011;63353;48.702;8.884;2022-12-05T09:16:31;20.27;;;10.93;;
74821;SDS011;63353;48.702;8.884;2022-12-05T09:18:58;19.30;;;10.97;;
74821;SDS011;63353;48.702;8.884;2022-12-05T09:21:25;19.23;;;11.00;;
74821;SDS011;63353;48.702;8.884;2022-12-05T09:23:52;20.37;;;11.30;;
74821;SDS011;63353;48.702;8.884;2022-12-05T09:26:20;19.67;;;10.93;;
74821;SDS011;63353;48.702;8.884;2022-12-05T09:28:47;18.40;;;11.37;;
74821;SDS011;63353;48.702;8.884;2022-12-05T09:31:15;19.13;;;11.57;;
74821;SDS011;63353;48.702;8.884;2022-12-05T09:33:42;18.00;;;11.10;;
74821;SDS011;63353;48.702;8.884;2022-12-05T09:36:12;17.03;;;10.47;;
74821;SDS011;63353;48.702;8.884;2022-12-05T09:38:40;17.03;;;9.80;;
74821;SDS011;63353;48.702;8.884;2022-12-05T09:43:46;19.23;;;11.97;;
74821;SDS011;63353;48.702;8.884;2022-12-05T09:49:02;18.50;;;10.80;;
74821;SDS011;63353;48.702;8.884;2022-12-05T09:51:29;16.83;;;10.43;;
74821;SDS011;63353;48.702;8.884;2022-12-05T09:53:56;16.37;;;9.60;;
74821;SDS011;63353;48.702;8.884;2022-12-05T09:56:26;15.27;;;10.17;;
74821;SDS011;63353;48.702;8.884;2022-12-05T09:58:55;15.33;;;9.47;;
74821;SDS011;63353;48.702;8.884;2022-12-05T10:04:18;13.17;;;9.23;;
74821;SDS011;63353;48.702;8.884;2022-12-05T10:15:22;15.47;;;9.93;;
74821;SDS011;63353;48.702;8.884;2022-12-05T10:18:35;21.37;;;13.90;;
74821;SDS011;63353;48.702;8.884;2022-12-05T10:23:22;21.50;;;12.73;;
74821;SDS011;63353;48.702;8.884;2022-12-05T10:25:54;22.43;;;13.33;;
74821;SDS011;63353;48.702;8.884;2022-12-05T10:28:27;23.30;;;14.43;;
74821;SDS011;63353;48.702;8.884;2022-12-05T10:30:58;23.83;;;16.10;;
74821;SDS011;63353;48.702;8.884;2022-12-05T10:33:32;33.67;;;20.67;;
74821;SDS011;63353;48.702;8.884;2022-12-05T10:36:11;12.23;;;8.97;;
74821;SDS011;63353;48.702;8.884;2022-12-05T10:38:38;8.17;;;6.10;;
74821;SDS011;63353;48.702;8.884;2022-12-05T10:41:08;14.47;;;10.33;;
74821;SDS011;63353;48.702;8.884;2022-12-05T10:43:39;11.93;;;7.87;;
74821;SDS011;63353;48.702;8.884;2022-12-05T10:46:08;21.77;;;15.97;;
74821;SDS011;63353;48.702;8.884;2022-12-05T10:48:36;12.70;;;7.90;;
74821;SDS011;63353;48.702;8.884;2022-12-05T10:51:04;12.90;;;9.80;;
74821;SDS011;63353;48.702;8.884;2022-12-05T10:59:06;8.37;;;5.90;;
74821;SDS011;63353;48.702;8.884;2022-12-05T11:01:33;9.30;;;6.10;;
74821;SDS011;63353;48.702;8.884;2022-12-05T11:04:21;8.73;;;6.10;;
74821;SDS011;63353;48.702;8.884;2022-12-05T11:06:50;7.57;;;4.87;;
74821;SDS011;63353;48.702;8.884;2022-12-05T11:09:18;8.40;;;6.07;;
74821;SDS011;63353;48.702;8.884;2022-12-05T11:14:30;9.50;;;6.60;;
74821;SDS011;63353;48.702;8.884;2022-12-05T11:16:59;7.90;;;5.80;;
74821;SDS011;63353;48.702;8.884;2022-12-05T11:19:33;8.13;;;5.53;;
74821;SDS011;63353;48.702;8.884;2022-12-05T11:22:03;9.93;;;6.90;;
74821;SDS011;63353;48.702;8.884;2022-12-05T11:24:32;7.00;;;5.97;;
74821;SDS011;63353;48.702;8.884;2022-12-05T11:27:17;7.93;;;5.73;;
74821;SDS011;63353;48.702;8.884;2022-12-05T11:30:30;6.43;;;5.33;;
74821;SDS011;63353;48.702;8.884;2022-12-05T11:32:37;8.23;;;5.80;;
74821;SDS011;63353;48.702;8.884;2022-12-05T11:37:47;6.83;;;4.93;;
74821;SDS011;63353;48.702;8.884;2022-12-05T11:40:25;8.67;;;5.97;;
74821;SDS011;63353;48.702;8.884;2022-12-05T11:48:58;8.77;;;5.60;;
74821;SDS011;63353;48.702;8.884;2022-12-05T12:08:11;7.30;;;5.93;;
74821;SDS011;63353;48.702;8.884;2022-12-05T12:19:43;16.77;;;11.03;;
74821;SDS011;63353;48.702;8.884;2022-12-05T12:27:49;5.40;;;4.90;;
74821;SDS011;63353;48.702;8.884;2022-12-05T12:30:27;7.60;;;4.87;;
74821;SDS011;63353;48.702;8.884;2022-12-05T12:40:49;10.80;;;8.17;;
74821;SDS011;63353;48.702;8.884;2022-12-05T12:43:34;5.07;;;4.30;;
74821;SDS011;63353;48.702;8.884;2022-12-05T12:46:10;10.27;;;6.97;;
74821;SDS011;63353;48.702;8.884;2022-12-05T12:52:04;13.17;;;10.33;;
74821;SDS011;63353;48.702;8.884;2022-12-05T13:05:56;88.03;;;46.73;;
74821;SDS011;63353;48.702;8.884;2022-12-05T13:08:40;20.97;;;14.90;;
74821;SDS011;63353;48.702;8.884;2022-12-05T13:11:37;7.17;;;6.40;;
74821;SDS011;63353;48.702;8.884;2022-12-05T13:14:08;4.43;;;3.70;;
74821;SDS011;63353;48.702;8.884;2022-12-05T13:16:41;6.10;;;5.17;;
74821;SDS011;63353;48.702;8.884;2022-12-05T13:19:31;5.23;;;4.13;;
74821;SDS011;63353;48.702;8.884;2022-12-05T13:22:08;5.37;;;4.87;;
74821;SDS011;63353;48.702;8.884;2022-12-05T13:24:35;4.07;;;3.37;;
74821;SDS011;63353;48.702;8.884;2022-12-05T13:27:03;5.27;;;4.77;;
74821;SDS011;63353;48.702;8.884;2022-12-05T13:29:32;5.00;;;4.00;;
74821;SDS011;63353;48.702;8.884;2022-12-05T13:32:31;4.80;;;4.00;;
74821;SDS011;63353;48.702;8.884;2022-12-05T13:38:18;6.80;;;5.43;;
74821;SDS011;63353;48.702;8.884;2022-12-05T13:41:13;11.20;;;6.63;;
74821;SDS011;63353;48.702;8.884;2022-12-05T13:43:58;6.87;;;5.83;;
74821;SDS011;63353;48.702;8.884;2022-12-05T13:46:28;5.97;;;4.57;;
74821;SDS011;63353;48.702;8.884;2022-12-05T13:51:39;4.97;;;3.67;;
74821;SDS011;63353;48.702;8.884;2022-12-05T13:56:55;9.80;;;7.00;;
74821;SDS011;63353;48.702;8.884;2022-12-05T14:07:52;9.13;;;5.93;;
74821;SDS011;63353;48.702;8.884;2022-12-05T14:15:40;3.17;;;2.70;;
74821;SDS011;63353;48.702;8.884;2022-12-05T14:24:00;6.80;;;5.20;;
74821;SDS011;63353;48.702;8.884;2022-12-05T14:32:14;5.37;;;4.13;;
74821;SDS011;63353;48.702;8.884;2022-12-05T14:34:48;7.80;;;5.07;;
74821;SDS011;63353;48.702;8.884;2022-12-05T14:39:59;6.10;;;5.43;;
74821;SDS011;63353;48.702;8.884;2022-12-05T14:47:48;6.17;;;5.57;;
74821;SDS011;63353;48.702;8.884;2022-12-05T14:53:21;12.17;;;9.53;;
74821;SDS011;63353;48.702;8.884;2022-12-05T15:01:31;4.03;;;3.63;;
74821;SDS011;63353;48.702;8.884;2022-12-05T15:06:50;9.60;;;8.50;;
74821;SDS011;63353;48.702;8.884;2022-12-05T15:09:29;5.30;;;4.27;;
74821;SDS011;63353;48.702;8.884;2022-12-05T15:12:12;7.60;;;6.80;;
74821;SDS011;63353;48.702;8.884;2022-12-05T15:17:44;5.40;;;4.50;;
74821;SDS011;63353;48.702;8.884;2022-12-05T15:31:46;6.93;;;5.00;;
74821;SDS011;63353;48.702;8.884;2022-12-05T15:42:25;8.70;;;7.50;;
74821;SDS011;63353;48.702;8.884;2022-12-05T15:47:44;13.60;;;10.13;;
74821;SDS011;63353;48.702;8.884;2022-12-05T15:56:05;5.63;;;4.80;;
74821;SDS011;63353;48.702;8.884;2022-12-05T15:58:33;4.27;;;3.50;;
74821;SDS011;63353;48.702;8.884;2022-12-05T16:01:10;4.07;;;3.37;;
74821;SDS011;63353;48.702;8.884;2022-12-05T16:03:46;14.27;;;7.57;;
74821;SDS011;63353;48.702;8.884;2022-12-05T16:06:39;19.57;;;12.00;;
74821;SDS011;63353;48.702;8.884;2022-12-05T16:09:19;8.17;;;6.47;;
74821;SDS011;63353;48.702;8.884;2022-12-05T16:11:50;10.00;;;7.73;;
74821;SDS011;63353;48.702;8.884;2022-12-05T16:14:21;8.83;;;7.93;;
74821;SDS011;63353;48.702;8.884;2022-12-05T16:16:49;9.67;;;8.77;;
74821;SDS011;63353;48.702;8.884;2022-12-05T16:19:21;6.90;;;6.30;;
74821;SDS011;63353;48.702;8.884;2022-12-05T16:22:01;7.07;;;6.03;;
74821;SDS011;63353;48.702;8.884;2022-12-05T16:24:42;11.90;;;9.23;;
74821;SDS011;63353;48.702;8.884;2022-12-05T16:27:16;7.50;;;6.80;;
74821;SDS011;63353;48.702;8.884;2022-12-05T16:30:04;14.93;;;10.93;;
74821;SDS011;63353;48.702;8.884;2022-12-05T16:32:30;10.77;;;8.30;;
74821;SDS011;63353;48.702;8.884;2022-12-05T16:34:59;15.90;;;10.93;;
74821;SDS011;63353;48.702;8.884;2022-12-05T16:37:26;7.57;;;5.93;;
74821;SDS011;63353;48.702;8.884;2022-12-05T16:39:54;50.43;;;22.03;;
74821;SDS011;63353;48.702;8.884;2022-12-05T16:42:27;29.83;;;15.40;;
74821;SDS011;63353;48.702;8.884;2022-12-05T16:44:54;24.17;;;13.17;;
74821;SDS011;63353;48.702;8.884;2022-12-05T16:48:12;15.90;;;9.80;;
74821;SDS011;63353;48.702;8.884;2022-12-05T16:50:26;17.87;;;12.47;;
74821;SDS011;63353;48.702;8.884;2022-12-05T16:52:59;23.27;;;14.07;;
74821;SDS011;63353;48.702;8.884;2022-12-05T16:55:45;19.07;;;13.17;;
74821;SDS011;63353;48.702;8.884;2022-12-05T16:58:13;25.70;;;15.70;;
74821;SDS011;63353;48.702;8.884;2022-12-05T17:00:45;20.07;;;13.07;;
74821;SDS011;63353;48.702;8.884;2022-12-05T17:03:11;13.23;;;10.57;;
74821;SDS011;63353;48.702;8.884;2022-12-05T17:05:37;15.20;;;11.63;;
74821;SDS011;63353;48.702;8.884;2022-12-05T17:08:03;22.23;;;16.47;;
74821;SDS011;63353;48.702;8.884;2022-12-05T17:10:29;16.03;;;11.37;;
74821;SDS011;63353;48.702;8.884;2022-12-05T17:12:55;18.23;;;12.10;;
74821;SDS011;63353;48.702;8.884;2022-12-05T17:15:21;11.57;;;8.70;;
74821;SDS011;63353;48.702;8.884;2022-12-05T17:17:47;11.30;;;8.27;;
74821;SDS011;63353;48.702;8.884;2022-12-05T17:20:12;16.20;;;9.23;;
74821;SDS011;63353;48.702;8.884;2022-12-05T17:22:38;8.30;;;7.37;;
74821;SDS011;63353;48.702;8.884;2022-12-05T17:25:47;8.07;;;6.67;;
74821;SDS011;63353;48.702;8.884;2022-12-05T17:28:00;6.07;;;5.40;;
74821;SDS011;63353;48.702;8.884;2022-12-05T17:30:25;9.47;;;7.47;;
74821;SDS011;63353;48.702;8.884;2022-12-05T17:32:51;6.93;;;5.90;;
74821;SDS011;63353;48.702;8.884;2022-12-05T17:35:18;10.53;;;7.93;;
74821;SDS011;63353;48.702;8.884;2022-12-05T17:37:46;10.10;;;7.90;;
74821;SDS011;63353;48.702;8.884;2022-12-05T17:40:12;25.63;;;16.40;;
74821;SDS011;63353;48.702;8.884;2022-12-05T17:42:38;8.03;;;6.30;;
74821;SDS011;63353;48.702;8.884;2022-12-05T17:45:05;8.33;;;6.50;;
74821;SDS011;63353;48.702;8.884;2022-12-05T17:47:35;9.53;;;8.33;;
74821;SDS011;63353;48.702;8.884;2022-12-05T17:50:01;9.93;;;7.37;;
74821;SDS011;63353;48.702;8.884;2022-12-05T17:52:28;10.97;;;8.27;;
74821;SDS011;63353;48.702;8.884;2022-12-05T17:54:53;11.77;;;7.73;;
74821;SDS011;63353;48.702;8.884;2022-12-05T17:57:19;9.53;;;7.60;;
74821;SDS011;63353;48.702;8.884;2022-12-05T17:59:45;13.57;;;9.10;;
74821;SDS011;63353;48.702;8.884;2022-12-05T18:02:10;12.27;;;9.20;;
74821;SDS011;63353;48.702;8.884;2022-12-05T18:04:36;9.70;;;8.00;;
74821;SDS011;63353;48.702;8.884;2022-12-05T18:07:02;8.57;;;6.60;;
74821;SDS011;63353;48.702;8.884;2022-12-05T18:09:28;10.47;;;7.97;;
74821;SDS011;63353;48.702;8.884;2022-12-05T18:11:53;8.57;;;6.63;;
74821;SDS011;63353;48.702;8.884;2022-12-05T18:14:20;8.53;;;6.17;;
74821;SDS011;63353;48.702;8.884;2022-12-05T18:16:46;9.90;;;7.33;;
74821;SDS011;63353;48.702;8.884;2022-12-05T18:19:12;9.33;;;6.93;;
74821;SDS011;63353;48.702;8.884;2022-12-05T18:21:38;8.83;;;6.60;;
74821;SDS011;63353;48.702;8.884;2022-12-05T18:24:04;9.77;;;7.80;;
74821;SDS011;63353;48.702;8.884;2022-12-05T18:26:29;15.23;;;11.93;;